| time (UTC) | temp F | wind direction | speed knots | gust knots | rain 1hr in | rain 24hr in | rain mn in | humidity % | barometer mb |
| 20260504081522 | 41 | 321 | 0.0 | 0.0 | 0.00 | 0.00 | 0.00 | 56 | 1010.8 |
| 20260504080116 | 42 | 321 | 0.0 | 0.0 | 0.00 | 0.00 | 0.00 | 56 | 1010.8 |
| 20260504050010 | 37 | 322 | 0.0 | 0.0 | 0.00 | 0.00 | 0.00 | 63 | 1010.3 |
| 20260504044558 | 37 | 322 | 0.0 | 0.0 | 0.00 | 0.00 | 0.00 | 62 | 1010.3 |
| 20260504043052 | 37 | 322 | 0.0 | 0.0 | 0.00 | 0.00 | 0.00 | 61 | 1010.3 |
| 20260504041529 | 38 | 322 | 0.0 | 0.0 | 0.00 | 0.00 | 0.00 | 60 | 1010.3 |
| 20260504040028 | 38 | 322 | 0.0 | 0.0 | 0.00 | 0.00 | 0.00 | 60 | 1010.2 |
| 20260504034509 | 39 | 322 | 0.0 | 0.0 | 0.00 | 0.00 | 0.00 | 58 | 1010.3 |
| 20260504033007 | 39 | 322 | 0.0 | 0.0 | 0.00 | 0.00 | 0.00 | 58 | 1010.2 |
| 20260504031548 | 40 | 322 | 0.0 | 0.0 | 0.00 | 0.00 | 0.00 | 56 | 1010.1 |
| 20260504030049 | 41 | 322 | 0.0 | 0.0 | 0.00 | 0.00 | 0.00 | 54 | 1010.0 |
| 20260504024529 | 41 | 322 | 0.0 | 0.0 | 0.00 | 0.00 | 0.00 | 51 | 1010.1 |
| 20260504023030 | 42 | 322 | 0.0 | 0.0 | 0.00 | 0.00 | 0.00 | 50 | 1010.2 |
| 20260504021510 | 43 | 322 | 0.0 | 0.0 | 0.00 | 0.00 | 0.00 | 48 | 1010.2 |
| 20260504020009 | 44 | 321 | 0.0 | 0.0 | 0.00 | 0.00 | 0.00 | 46 | 1010.0 |
| 20260504014552 | 45 | 321 | 0.0 | 0.0 | 0.00 | 0.00 | 0.00 | 44 | 1010.1 |
| 20260504013104 | 46 | 321 | 0.0 | 0.0 | 0.00 | 0.00 | 0.00 | 41 | 1009.9 |
| 20260504011531 | 47 | 321 | 0.0 | 0.0 | 0.00 | 0.00 | 0.00 | 34 | 1009.8 |
| 20260504010029 | 49 | 321 | 0.0 | 0.0 | 0.00 | 0.00 | 0.00 | 32 | 1009.5 |
| 20260504004512 | 50 | 321 | 0.0 | 0.0 | 0.00 | 0.00 | 0.00 | 31 | 1009.2 |
| 20260504003023 | 51 | 321 | 0.0 | 0.0 | 0.00 | 0.00 | 0.00 | 28 | 1009.1 |
| 20260504001601 | 52 | 321 | 0.0 | 0.0 | 0.00 | 0.00 | 0.00 | 25 | 1008.9 |
| 20260504000052 | 53 | 332 | 0.0 | 0.9 | 0.00 | 0.00 | 0.00 | 22 | 1008.7 |
| 20260503234541 | 54 | 358 | 0.0 | 0.9 | 0.00 | 0.00 | 0.00 | 22 | 1008.4 |
| 20260503233033 | 54 | 329 | 0.0 | 1.7 | 0.00 | 0.00 | 0.00 | 21 | 1008.1 |
| 20260503231516 | 54 | 24 | 0.0 | 2.6 | 0.00 | 0.00 | 0.00 | 20 | 1008.1 |
| 20260503230016 | 55 | 334 | 0.0 | 7.0 | 0.00 | 0.00 | 0.00 | 19 | 1007.9 |
| 20260503224557 | 55 | 337 | 0.0 | 3.5 | 0.00 | 0.00 | 0.00 | 20 | 1007.8 |
| 20260503223059 | 55 | 326 | 1.7 | 6.1 | 0.00 | 0.00 | 0.00 | 20 | 1007.8 |
| 20260503221545 | 55 | 356 | 0.9 | 5.2 | 0.00 | 0.00 | 0.00 | 21 | 1007.7 |
| 20260503220044 | 55 | 349 | 1.7 | 4.3 | 0.00 | 0.00 | 0.00 | 20 | 1007.7 |
| 20260503214543 | 55 | 32 | 0.9 | 7.0 | 0.00 | 0.00 | 0.00 | 22 | 1007.8 |
| 20260503213059 | 55 | 22 | 1.7 | 7.0 | 0.00 | 0.00 | 0.00 | 22 | 1007.6 |
| 20260503211541 | 55 | 3 | 0.0 | 6.1 | 0.00 | 0.00 | 0.00 | 24 | 1007.6 |
| 20260503210053 | 55 | 38 | 1.7 | 4.3 | 0.00 | 0.00 | 0.00 | 24 | 1007.8 |
| 20260503204548 | 55 | 4 | 1.7 | 5.2 | 0.00 | 0.00 | 0.00 | 23 | 1007.7 |
| 20260503203037 | 55 | 319 | 0.9 | 4.3 | 0.00 | 0.00 | 0.00 | 24 | 1007.7 |
| 20260503201518 | 55 | 357 | 1.7 | 5.2 | 0.00 | 0.00 | 0.00 | 24 | 1007.7 |
| 20260503200018 | 55 | 308 | 0.9 | 6.1 | 0.00 | 0.00 | 0.00 | 25 | 1007.8 |
| 20260503194559 | 54 | 19 | 0.9 | 9.6 | 0.00 | 0.00 | 0.00 | 27 | 1007.8 |
| 20260503193101 | 53 | 334 | 3.5 | 8.7 | 0.00 | 0.00 | 0.00 | 26 | 1007.9 |
| 20260503191542 | 52 | 19 | 1.7 | 7.0 | 0.00 | 0.00 | 0.00 | 28 | 1008.1 |
| 20260503190041 | 54 | 336 | 1.7 | 7.0 | 0.00 | 0.00 | 0.00 | 26 | 1008.1 |
| 20260503184534 | 54 | 16 | 0.9 | 4.3 | 0.00 | 0.00 | 0.00 | 27 | 1008.0 |
| 20260503183020 | 52 | 351 | 1.7 | 13.9 | 0.00 | 0.00 | 0.00 | 26 | 1008.1 |
| 20260503181504 | 51 | 342 | 3.5 | 10.4 | 0.00 | 0.00 | 0.00 | 26 | 1008.1 |
| 20260503180007 | 52 | 49 | 0.9 | 15.6 | 0.00 | 0.00 | 0.00 | 26 | 1008.0 |
| 20260503174544 | 52 | 345 | 3.5 | 6.1 | 0.00 | 0.00 | 0.00 | 25 | 1008.0 |
| 20260503173109 | 52 | 356 | 0.9 | 7.8 | 0.00 | 0.00 | 0.00 | 26 | 1008.0 |
| 20260503171531 | 51 | 155 | 0.9 | 7.8 | 0.00 | 0.00 | 0.00 | 26 | 1008.0 |